createdAt,value
2019-03-11T00:03:50.724Z,52.5
2019-03-11T00:08:56.221Z,52.5
2019-03-11T00:14:01.888Z,52.5
2019-03-11T00:19:07.737Z,52.5
2019-03-11T00:24:13.855Z,52.5
2019-03-11T00:29:19.274Z,52.5
2019-03-11T00:34:25.175Z,52.5
2019-03-11T00:39:30.536Z,52.5
2019-03-11T00:44:35.966Z,53.1
2019-03-11T00:49:41.259Z,52.4
2019-03-11T00:54:46.937Z,52.4
2019-03-11T00:59:52.692Z,52.6
2019-03-11T01:04:57.843Z,52.5
2019-03-11T01:10:03.469Z,52.4
2019-03-11T01:15:09.925Z,52.3
2019-03-11T01:20:16.116Z,52.1
2019-03-11T01:25:21.808Z,52
2019-03-11T01:30:26.938Z,51.8
2019-03-11T01:40:36.502Z,51.7
2019-03-11T01:45:42.073Z,51.5
2019-03-11T01:50:47.284Z,51.5
2019-03-11T01:55:52.817Z,51.6
2019-03-11T02:00:58.172Z,51.6
2019-03-11T02:06:03.758Z,51.7
2019-03-11T02:11:09.365Z,51.5
2019-03-11T02:16:15.176Z,51.3
2019-03-11T02:21:21.465Z,51.3
2019-03-11T02:26:26.516Z,51.1
2019-03-11T02:31:32.501Z,51.2
2019-03-11T02:36:37.594Z,51.2
2019-03-11T02:41:43.532Z,51.1
2019-03-11T02:46:49.207Z,51.1
2019-03-11T02:51:54.950Z,51.3
2019-03-11T02:57:00.086Z,51.2
2019-03-11T03:02:05.804Z,51.2
2019-03-11T03:07:11.737Z,51
2019-03-11T03:12:17.608Z,51
2019-03-11T03:17:22.901Z,50.9
2019-03-11T03:22:28.852Z,50.9
2019-03-11T03:27:34.647Z,50.7
2019-03-11T03:32:40.737Z,50.5
2019-03-11T03:37:46.634Z,50.4
2019-03-11T03:42:53.204Z,50
2019-03-11T03:47:59.347Z,50
2019-03-11T03:53:05.651Z,50.2
2019-03-11T03:58:11.187Z,50.1
2019-03-11T04:03:16.759Z,50
2019-03-11T04:08:21.901Z,49.7
2019-03-11T04:13:27.419Z,49.8
2019-03-11T04:18:33.561Z,49.8
2019-03-11T04:23:39.273Z,49.8
2019-03-11T04:28:45.183Z,50.1
2019-03-11T04:33:51.011Z,49.9
2019-03-11T04:38:56.295Z,49.8
2019-03-11T04:44:02.326Z,49.9
2019-03-11T04:54:12.159Z,49.8
2019-03-11T04:59:17.781Z,49.7
2019-03-11T05:04:23.018Z,49.8
2019-03-11T05:09:28.985Z,49.7
2019-03-11T05:14:34.487Z,49.7
2019-03-11T05:19:40.636Z,49.8
2019-03-11T05:24:46.075Z,49.5
2019-03-11T05:29:52.138Z,49.4
2019-03-11T05:34:58.116Z,49.1
2019-03-11T05:40:03.588Z,49.2
2019-03-11T05:45:09.146Z,49.1
2019-03-11T05:50:14.074Z,49.3
2019-03-11T05:55:19.221Z,49.3
2019-03-11T06:00:24.445Z,49.5
2019-03-11T06:05:29.851Z,49.3
2019-03-11T06:10:35.956Z,49
2019-03-11T06:15:41.779Z,48.8
2019-03-11T06:20:46.989Z,48.8
2019-03-11T06:25:52.959Z,49.7
2019-03-11T06:30:58.314Z,49.1
2019-03-11T06:36:03.651Z,49.3
2019-03-11T06:41:09.348Z,49.7
2019-03-11T06:46:15.012Z,49.7
2019-03-11T06:51:20.197Z,49.9
2019-03-11T06:56:25.201Z,50
2019-03-11T07:01:30.173Z,32.4
2019-03-11T07:06:34.920Z,39.5
2019-03-11T07:11:40.685Z,38.9
2019-03-11T07:16:46.106Z,39.2
2019-03-11T07:21:51.928Z,39.7
2019-03-11T07:26:57.312Z,40.3
2019-03-11T07:32:02.393Z,40.8
2019-03-11T07:37:07.713Z,41.3
2019-03-11T07:42:12.688Z,42.1
2019-03-11T07:47:18.215Z,42.5
2019-03-11T07:52:24.253Z,43
2019-03-11T07:57:29.336Z,43.2
2019-03-11T08:02:34.333Z,43.3
2019-03-11T08:07:38.466Z,43.3
2019-03-11T08:12:41.933Z,43.5
2019-03-11T08:17:47.383Z,43.9
2019-03-11T08:22:52.604Z,43.7
2019-03-11T08:27:59.184Z,43.9
2019-03-11T08:33:04.207Z,44.2
2019-03-11T08:43:13.633Z,44.6
2019-03-11T08:48:18.856Z,44.6
2019-03-11T08:53:24.020Z,44.5
2019-03-11T08:58:29.217Z,44.7
2019-03-11T09:03:34.420Z,44.8
2019-03-11T09:08:40.174Z,45
2019-03-11T09:13:45.167Z,45.2
2019-03-11T09:18:50.202Z,45.2
2019-03-11T09:23:55.387Z,45.1
2019-03-11T09:29:01.069Z,44.9
2019-03-11T09:34:06.125Z,45.7
2019-03-11T09:39:10.545Z,45.4
2019-03-11T09:44:15.785Z,44.8
2019-03-11T09:49:21.290Z,44.8
2019-03-11T09:54:24.869Z,44.8
2019-03-11T09:59:30.478Z,45.5
2019-03-11T10:04:35.761Z,45.1
2019-03-11T10:09:41.199Z,45.8
2019-03-11T10:14:46.898Z,45.8
2019-03-11T10:19:51.979Z,45.5
2019-03-11T10:24:57.297Z,45.9
2019-03-11T10:30:02.670Z,46.4
2019-03-11T10:35:32.516Z,47.5
2019-03-11T10:40:18.128Z,49.2
2019-03-11T10:45:34.108Z,47.6
2019-03-11T10:50:29.640Z,47.7
2019-03-11T10:55:34.673Z,48
2019-03-11T11:00:38.569Z,48.3
2019-03-11T11:05:43.869Z,48.5
2019-03-11T11:10:49.426Z,48.5
2019-03-11T11:15:57.169Z,48.5
2019-03-11T11:21:02.985Z,48.4
2019-03-11T11:26:08.117Z,48.5
2019-03-11T11:31:13.216Z,48.5
2019-03-11T11:36:18.795Z,48.4
2019-03-11T11:41:23.237Z,48.5
2019-03-11T11:46:29.529Z,48.6
2019-03-11T11:51:35.497Z,48.5
2019-03-11T11:56:41.217Z,48.3
2019-03-11T12:01:47.445Z,48.4
2019-03-11T12:06:52.808Z,48.3
2019-03-11T12:11:58.172Z,48.2
2019-03-11T12:17:03.991Z,48.2
2019-03-11T12:22:09.849Z,48.6
2019-03-11T12:27:15.633Z,48.6
2019-03-11T12:32:21.332Z,48.7
2019-03-11T12:37:27.438Z,48.7
2019-03-11T12:42:32.803Z,48.6
2019-03-11T12:47:38.762Z,48.6
2019-03-11T12:52:45.054Z,48.6
2019-03-11T12:57:50.732Z,48.5
2019-03-11T13:02:56.215Z,48.4
2019-03-11T13:08:03.093Z,48.6
2019-03-11T13:13:08.810Z,48.7
2019-03-11T13:18:13.993Z,48.6
2019-03-11T13:23:20.304Z,48.8
2019-03-11T13:28:25.751Z,48.9
2019-03-11T13:33:31.157Z,49.5
2019-03-11T13:38:36.983Z,49.7
2019-03-11T13:43:42.491Z,49.8
2019-03-11T13:48:48.201Z,49.5
2019-03-11T13:53:54.314Z,49.6
2019-03-11T13:58:59.985Z,49.6
2019-03-11T14:04:07.967Z,49.6
2019-03-11T14:09:13.783Z,49.6
2019-03-11T14:14:19.761Z,50.3
2019-03-11T14:19:25.579Z,50.3
2019-03-11T14:24:31.376Z,50.2
2019-03-11T14:29:37.065Z,50
2019-03-11T14:34:41.256Z,49.7
2019-03-11T14:39:50.548Z,49.5
2019-03-11T14:44:56.532Z,49.5
2019-03-11T14:55:07.406Z,49.5
2019-03-11T15:00:12.737Z,49.5
2019-03-11T15:05:18.461Z,49.4
2019-03-11T15:10:24.272Z,27.1
2019-03-11T15:15:29.915Z,35.9
2019-03-11T15:20:35.323Z,38.8
2019-03-11T15:25:41.580Z,42.8
2019-03-11T15:30:47.277Z,42.8
2019-03-11T15:35:51.108Z,43.8
2019-03-11T15:40:56.572Z,45
2019-03-11T15:45:56.567Z,45.5
2019-03-11T15:51:01.953Z,45.9
2019-03-11T15:56:06.659Z,46
2019-03-11T16:01:11.878Z,46.2
2019-03-11T16:06:18.331Z,46.8
2019-03-11T16:11:24.183Z,46.8
2019-03-11T16:16:31.990Z,46.9
2019-03-11T16:21:37.423Z,47
2019-03-11T16:26:43.508Z,47.1
2019-03-11T16:31:49.675Z,48.2
2019-03-11T16:36:55.579Z,48.2
2019-03-11T16:42:01.319Z,48.3
2019-03-11T16:47:06.947Z,48.5
2019-03-11T16:52:12.097Z,48.9
2019-03-11T16:57:17.141Z,49.2
2019-03-11T17:02:22.537Z,49.5
2019-03-11T17:07:27.726Z,50.2
2019-03-11T17:12:32.756Z,50.9
2019-03-11T17:17:38.211Z,51.1
2019-03-11T17:22:43.383Z,51.2
2019-03-11T17:27:48.580Z,51.1
2019-03-11T17:32:52.377Z,51.1
2019-03-11T17:37:58.324Z,50.9
2019-03-11T17:43:08.703Z,50.9
2019-03-11T17:48:13.893Z,51
2019-03-11T17:53:22.703Z,51.1
2019-03-11T17:58:28.893Z,51.1
2019-03-11T18:03:34.191Z,51.4
2019-03-11T18:08:39.864Z,51.4
2019-03-11T18:13:44.947Z,51.8
2019-03-11T18:18:50.945Z,51.9
2019-03-11T18:23:56.102Z,52.1
2019-03-11T18:29:01.323Z,52.9
2019-03-11T18:34:06.620Z,52.1
2019-03-11T18:39:12.256Z,52.5
2019-03-11T18:44:17.314Z,52.3
2019-03-11T18:49:22.546Z,52.4
2019-03-11T18:54:28.160Z,53
2019-03-11T18:59:34.396Z,53.2
2019-03-11T19:04:39.684Z,53.2
2019-03-11T19:14:50.430Z,36.1
2019-03-11T19:19:55.527Z,40.9
2019-03-11T19:25:00.705Z,41.9
2019-03-11T19:30:06.422Z,43.6
2019-03-11T19:35:10.901Z,44.8
2019-03-11T19:45:20.473Z,50.3
2019-03-11T19:50:22.241Z,50.1
2019-03-11T19:55:27.886Z,49.9
2019-03-11T20:00:33.451Z,49.9
2019-03-11T20:05:38.867Z,49.6
2019-03-11T20:10:42.956Z,51.9
2019-03-11T20:15:48.504Z,52.5
2019-03-11T20:20:54.457Z,52.6
2019-03-11T20:26:00.376Z,53.3
2019-03-11T20:31:06.811Z,52.3
2019-03-11T20:36:25.975Z,52
2019-03-11T20:41:21.939Z,52
2019-03-11T20:46:27.984Z,51.9
2019-03-11T20:52:45.288Z,51.4
2019-03-11T20:57:51.060Z,51.4
2019-03-11T21:02:59.873Z,51.4
2019-03-11T21:08:01.018Z,51.4
2019-03-11T21:13:06.195Z,51.3
2019-03-11T21:18:11.406Z,51.2
2019-03-11T21:23:17.087Z,51.6
2019-03-11T21:28:22.571Z,51.6
2019-03-11T21:33:28.741Z,51.2
2019-03-11T21:38:34.222Z,51.2
2019-03-11T21:43:39.578Z,51
2019-03-11T21:48:44.846Z,51.1
2019-03-11T21:53:50.165Z,51.2
2019-03-11T21:58:56.115Z,51.4
2019-03-11T22:04:01.681Z,51.5
2019-03-11T22:09:07.479Z,51.4
2019-03-11T22:14:13.193Z,51.4
2019-03-11T22:19:18.165Z,51.4
2019-03-11T22:24:23.739Z,51.2
2019-03-11T22:29:29.684Z,51.1
2019-03-11T22:34:35.692Z,51.1
2019-03-11T22:39:40.655Z,51.2
2019-03-11T22:44:45.946Z,51.3
2019-03-11T22:54:55.537Z,51.4
2019-03-11T23:00:01.326Z,51.4
2019-03-11T23:05:06.632Z,51.3
2019-03-11T23:10:12.594Z,51.1
2019-03-11T23:15:17.960Z,51.1
2019-03-11T23:20:23.940Z,51
2019-03-11T23:25:29.912Z,51
2019-03-11T23:30:35.482Z,51
2019-03-11T23:35:40.797Z,50.9
2019-03-11T23:40:46.414Z,50.9
2019-03-11T23:45:51.663Z,50.8
2019-03-11T23:50:57.479Z,50.8
2019-03-11T23:56:02.997Z,50.7
